Hub


Voltar

 INFORMAÇÕES METEOROLÓGICAS

METAR FOR EVRA


ADDS - METARS form results

(1254 UTC 26 April 2019)
Data provider http://aviationweather.gov/metar/data/
 
METAR text: EVRA 261250Z 17012KT 9999 VCTS FEW049CB 26/07 Q1013 TEMPO -TSRA
Conditions at: EVRA (RIGA AIRPORT , LV) observed 1250 UTC 26 April 2019
Temperature: 26.0°C (79°F)
Dewpoint: 7.0°C (45°F) [RH = 30%]
Pressure (altimeter): 29.91 inches Hg (1013.0 mb)
Winds: from the S (170 degrees) at 14 MPH (12 knots; 6.2 m/s)
Visibility: 6 or more miles (10+ km)
Ceiling: at least 12,000 feet AGL
Clouds: few clouds at 4900 feet AGL
Weather: VCTS  (thunderstorm in vicinity)

METAR text: EVRA 261220Z VRB05KT CAVOK 26/07 Q1013 NOSIG
Conditions at: EVRA (RIGA AIRPORT , LV) observed 1220 UTC 26 April 2019
Temperature: 26.0°C (79°F)
Dewpoint: 7.0°C (45°F) [RH = 30%]
Pressure (altimeter): 29.91 inches Hg (1013.0 mb)
Winds: variable direction winds at 6 MPH (5 knots; 2.6 m/s)
Visibility: 6 or more miles (10+ km)
Ceiling: ceiling and visibility are OK
Clouds: unknown
Weather: no significant weather observed at this time

Forecast for: AMD
Text: TAF AMD EVRA 261246Z 2612/2712 13009KT CAVOK
Forecast period: 1200 UTC 26 April 2019 to 1200 UTC 27 April 2019
Forecast type: FROM: standard forecast or significant change
Winds: from the SE (130 degrees) at 10 MPH (9 knots; 4.6 m/s)
Visibility: 6 or more miles 10+ km)
Ceiling: unknown
Clouds: missing
Weather: NSW  (no significant weather)
Text: TEMPO 2612/2618 -TSRA SCT040CB
Forecast period: 1200 to 1800 UTC 26 April 2019
Forecast type: TEMPORARY: The following changes expected for less than half the time period
Visibility: missing
Ceiling: at least 12,000 feet AGL
Clouds: scattered clouds at 4000 feet AGL
Weather: -TSRA  (light rain associated with thunderstorm(s))


 MAPA DO AEROPORTO


 INFORMAÇÕES DA PISTA

Pista 18 Tamanho da pista 10499 ft Largura da pista 148 ft
Elevação da pista 31 ft Ranhura da pista 0 ft Proa da pista 185
Pista 36 Tamanho da pista 10499 ft Largura da pista 148 ft
Elevação da pista 34 ft Ranhura da pista 0 ft Proa da pista 5

 FREQUÊNCIAS DO AEROPORTO

Tipo APP Nome APP Frequência 129.925 MHZ
Tipo ATIS Nome ATIS Frequência 121.2 MHZ
Tipo GND Nome Riga Groun Frequência 118.8 MHZ
Tipo MISC Nome Riga Apron Frequência 131.6 MHZ
Tipo TWR Nome TWR Frequência 118.1 MHZ

 AUXÍLIOS DE NAVEGAÇÃO PRÓXIMOS AO AEROPORTO

Tipo VOR-DME Nome Riga Frequência 112050 KHZ
Tipo VOR-DME Nome Riga Frequência 113700 KHZ